Ashwood, Oregon
Current Conditions -  °F | °C
As of 8:55 AM on Saturday 22 Nov 2014 (Local Time) from KS39 Reporting Station
Unknown Precip Unknown Precip  
Wind Chill: 32°   Ceiling: 2100
Heat Index: 37°   Visibility: 9mi
Dew Point: 36°   Wind: 7mph
Humidity: 93%   Direction: 190°S
Pressure: 29.82"   Gusts: NA
Location:  44.73°N, 120.76°W
Report Text: KS39 221655Z AUTO 19006KT 9SM -UP BKN021 BKN026 BKN065 03/02 A2982 RMK AO2
Loading
Personal Weather Stations






























Interactive Weather Map New forecast layout! Learn more

10-Day Weather Forecast

Advertisements
Track Severe Weather on mobile